Airfield :







YOU CAN JOIN US ON...

 
LOGIN :

Register | Disclaimer

   EN    FR    IT 

 









Legend :    VFR   Marginal VFR   IFR   Intensive IFR   Very Intensive IFR
Visi :
Ceiling :
>= 8 km
>= 3000ft
5 to 8 km
1000 to 3000 ft
1500m to 5 km
500 to 1000 ft
800 to 1500m
200 to 500 ft
< 800m
< 200 ft
Symbols :   Thunderstorms  Fog  Heavy snow  Heavy precipitations  Wind > 20 kt






- Airport Elevation : 110 ft
- IATA code : YFB


CYFB - Iqaluit

CURRENT METAR :
  • 170700Z 12011KT 15SM FEW036 BKN048 OVC160 02/M01 A2973 RMK SC1SC5AC2 SLP073

EXPIRED METARs :
  • 170600Z 13008KT 15SM FEW036 BKN048 OVC210 02/M01 A2976 RMK SC1SC6CI1 SLP080
  • 170500Z 13007KT 15SM SCT036 BKN047 02/M01 A2979 RMK SC3SC3 SLP091

TAF TAF CYFB
Valid from the 17 at 06:00 until the 18 at 06:00 UTC


170540Z 1706/1806 12010KT P6SM SCT020 BKN040
TEMPO 1706/1711 BKN020
FM171100 14015G25KT P6SM -RA SCT015 BKN040
TEMPO 1711/1806 5SM -RASN BR BKN015 OVC040 RMK NXT FCST BY 171200Z
CZUL FIR / North America



MET'MAP, your aeronautical weather chart ! - Copyright ORBIFLY December 2007 - Disclaimer

ORBIFLY MET'MAP TEAM :

Programming & Development : Alexandra Zaïnal
Concept & original design : Baudouin d'Aumeries
Assistance for programming : Marc-Olivier Méhu
Technical & hardware support : Manuel Goepfert

Contact : metmap@orbifly.com




SOURCES & CREDITS :

   NOAA